Time;durP1;ratioP1;P1;durP2;ratioP2;P2;SDS_P1;SDS_P2;PMS_P1;PMS_P2;Temp;Humidity;BMP_temperature;BMP_pressure;BME280_temperature;BME280_humidity;BME280_pressure;Samples;Min_cycle;Max_cycle;Signal;HPM_P1;HPM_P2
2023/09/21 00:00:17;;;;;;;8.05;2.10;;;21.40;96.40;;;;;;4230572;28;20450;-55
2023/09/21 00:02:19;;;;;;;2.53;1.80;;;21.40;96.30;;;;;;4249113;27;20058;-54
2023/09/21 00:04:21;;;;;;;5.22;2.13;;;21.40;96.40;;;;;;4230633;28;20043;-55
2023/09/21 00:06:25;;;;;;;7.57;1.98;;;21.40;96.30;;;;;;4248558;27;20131;-54
2023/09/21 00:08:27;;;;;;;4.18;1.80;;;21.30;96.30;;;;;;4248716;27;20047;-54
2023/09/21 00:10:29;;;;;;;4.90;2.10;;;21.30;96.40;;;;;;4248433;27;20473;-54
2023/09/21 00:12:31;;;;;;;4.55;1.75;;;21.30;96.30;;;;;;4248683;27;20063;-54
2023/09/21 00:14:33;;;;;;;4.80;2.03;;;21.30;96.50;;;;;;4248702;27;20043;-53
2023/09/21 00:16:36;;;;;;;3.53;1.65;;;21.30;96.80;;;;;;4225246;28;20043;-54
2023/09/21 00:18:42;;;;;;;4.00;1.70;;;21.30;97.00;;;;;;4248228;27;20082;-51
2023/09/21 00:20:51;;;;;;;8.00;2.10;;;21.30;97.00;;;;;;4248486;27;20047;-52
2023/09/21 00:22:55;;;;;;;6.22;2.05;;;21.20;97.10;;;;;;4248060;27;20133;-53
2023/09/21 00:24:57;;;;;;;4.90;2.13;;;21.20;97.20;;;;;;4248758;27;20050;-54
2023/09/21 00:27:00;;;;;;;4.45;2.08;;;21.20;97.20;;;;;;4248311;27;20043;-55
2023/09/21 00:29:05;;;;;;;5.90;1.70;;;21.20;97.30;;;;;;4248473;27;20469;-53
2023/09/21 00:31:07;;;;;;;3.58;1.75;;;21.20;97.50;;;;;;4248555;27;20058;-54
2023/09/21 00:33:09;;;;;;;5.03;1.70;;;21.10;98.00;;;;;;4248967;27;20127;-54
2023/09/21 00:35:11;;;;;;;5.97;1.67;;;21.10;97.80;;;;;;4248619;27;20061;-54
2023/09/21 00:37:18;;;;;;;5.22;1.98;;;21.00;98.10;;;;;;4247911;27;20485;-55
2023/09/21 00:39:21;;;;;;;3.95;1.95;;;21.00;98.20;;;;;;4248199;27;20051;-55
2023/09/21 00:41:25;;;;;;;8.13;2.63;;;21.00;98.50;;;;;;4247902;27;20039;-54
2023/09/21 00:43:28;;;;;;;7.75;2.22;;;21.00;98.60;;;;;;4248097;27;20047;-54
2023/09/21 00:45:30;;;;;;;4.43;1.60;;;20.90;98.80;;;;;;4248180;27;20114;-54
2023/09/21 00:47:33;;;;;;;4.40;1.95;;;20.90;98.90;;;;;;4247879;27;20035;-54
2023/09/21 00:49:36;;;;;;;3.47;1.95;;;20.90;98.80;;;;;;4247883;27;20051;-54
2023/09/21 00:51:39;;;;;;;4.28;1.77;;;20.90;98.80;;;;;;4247778;27;20044;-54
2023/09/21 00:53:44;;;;;;;4.32;2.17;;;20.90;98.90;;;;;;4248149;27;20088;-54
2023/09/21 00:55:52;;;;;;;5.07;2.10;;;20.90;98.90;;;;;;4248254;27;20049;-54
2023/09/21 00:57:57;;;;;;;4.25;1.75;;;20.80;99.00;;;;;;4229630;28;20399;-54
2023/09/21 00:59:59;;;;;;;;;;;20.80;99.00;;;;;;4247566;27;20104;-54
2023/09/21 01:02:04;;;;;;;8.27;2.00;;;20.80;99.20;;;;;;4247618;27;19961;-54
2023/09/21 01:04:07;;;;;;;4.97;1.70;;;20.70;99.40;;;;;;4229745;28;20040;-55
2023/09/21 01:06:10;;;;;;;4.20;1.83;;;20.70;99.30;;;;;;4247527;27;20071;-54
2023/09/21 01:08:17;;;;;;;5.13;2.10;;;20.70;99.50;;;;;;4247030;27;20044;-54
2023/09/21 01:10:19;;;;;;;5.10;2.10;;;20.70;99.70;;;;;;4247893;27;20047;-54
2023/09/21 01:12:23;;;;;;;5.55;1.92;;;20.60;99.90;;;;;;4247661;27;20047;-55
2023/09/21 01:14:27;;;;;;;5.07;2.00;;;20.60;99.90;;;;;;4248118;27;20050;-54
2023/09/21 01:16:30;;;;;;;5.33;2.00;;;20.50;99.90;;;;;;4244099;27;20496;-54
2023/09/21 01:18:33;;;;;;;5.63;1.92;;;20.40;99.90;;;;;;4245309;27;20542;-53
2023/09/21 01:20:35;;;;;;;4.93;2.20;;;20.40;99.90;;;;;;4247289;27;20074;-55
2023/09/21 01:22:39;;;;;;;6.18;1.90;;;20.40;99.90;;;;;;4247291;27;20051;-54
2023/09/21 01:24:44;;;;;;;6.10;2.13;;;20.40;99.90;;;;;;4229430;28;20066;-54
2023/09/21 01:26:46;;;;;;;4.55;1.58;;;20.40;99.90;;;;;;4230802;28;20048;-55
2023/09/21 01:28:48;;;;;;;3.90;1.88;;;20.40;99.90;;;;;;4245028;27;20039;-55
2023/09/21 01:30:51;;;;;;;4.72;1.92;;;20.40;99.90;;;;;;4247584;27;20047;-57
2023/09/21 01:32:53;;;;;;;4.13;1.73;;;20.40;99.90;;;;;;4247438;27;20499;-54
2023/09/21 01:34:55;;;;;;;4.35;1.60;;;20.30;99.90;;;;;;4247641;27;20050;-55
2023/09/21 01:36:57;;;;;;;7.70;2.10;;;20.40;99.90;;;;;;4247083;27;20047;-55
2023/09/21 01:38:59;;;;;;;7.18;1.65;;;20.30;99.90;;;;;;4247030;27;20049;-55
2023/09/21 01:41:03;;;;;;;7.07;1.90;;;20.30;99.90;;;;;;4247171;27;20047;-54
2023/09/21 01:43:06;;;;;;;4.95;1.50;;;20.20;99.90;;;;;;4247107;27;20043;-55
2023/09/21 01:45:09;;;;;;;4.15;1.80;;;20.10;99.90;;;;;;4247265;27;20035;-54
2023/09/21 01:47:11;;;;;;;5.53;2.05;;;19.90;99.90;;;;;;4247472;27;20054;-53
2023/09/21 01:49:13;;;;;;;4.80;2.30;;;19.90;99.90;;;;;;4246871;27;20190;-54
2023/09/21 01:51:16;;;;;;;3.22;1.67;;;19.80;99.90;;;;;;4246908;27;20049;-53
2023/09/21 01:53:20;;;;;;;7.00;2.42;;;19.80;99.90;;;;;;4247243;27;20126;-54
2023/09/21 01:55:22;;;;;;;8.80;2.17;;;19.80;99.90;;;;;;4247091;27;20039;-54
2023/09/21 01:57:27;;;;;;;4.78;1.92;;;19.70;99.90;;;;;;4247257;27;20043;-54
2023/09/21 01:59:31;;;;;;;9.43;2.72;;;19.60;99.90;;;;;;4247148;28;20039;-54
2023/09/21 02:01:33;;;;;;;10.27;2.78;;;19.60;99.90;;;;;;4247187;28;20393;-53
2023/09/21 02:03:35;;;;;;;9.30;2.50;;;19.60;99.90;;;;;;4228598;28;20105;-54
2023/09/21 02:05:38;;;;;;;6.30;2.20;;;19.50;99.90;;;;;;4225443;28;20047;-54
2023/09/21 02:07:41;;;;;;;5.68;2.20;;;19.50;99.90;;;;;;4247249;28;20054;-54
2023/09/21 02:09:43;;;;;;;8.57;2.47;;;19.40;99.90;;;;;;4246810;28;20526;-54
2023/09/21 02:11:47;;;;;;;5.90;2.10;;;19.40;99.90;;;;;;4247176;28;20142;-54
2023/09/21 02:13:50;;;;;;;6.20;2.22;;;19.40;99.90;;;;;;4246948;28;20047;-54
2023/09/21 02:15:52;;;;;;;5.63;2.13;;;19.30;99.90;;;;;;4247279;28;20130;-53
2023/09/21 02:17:55;;;;;;;6.40;2.10;;;19.30;99.90;;;;;;4230984;28;20122;-55
2023/09/21 02:19:59;;;;;;;4.07;1.90;;;19.30;99.90;;;;;;4240260;27;20073;-54
2023/09/21 02:22:01;;;;;;;5.45;2.17;;;19.20;99.90;;;;;;4250663;27;20054;-54
2023/09/21 02:24:04;;;;;;;6.05;2.42;;;19.30;99.90;;;;;;4250349;27;20441;-54
2023/09/21 02:26:07;;;;;;;4.85;2.08;;;19.20;99.90;;;;;;4249381;27;20081;-54
2023/09/21 02:28:11;;;;;;;5.57;2.50;;;19.10;99.90;;;;;;4250554;27;20072;-54
2023/09/21 02:30:17;;;;;;;5.75;2.03;;;19.20;99.90;;;;;;4250232;27;20084;-53
2023/09/21 02:32:19;;;;;;;5.72;2.40;;;19.10;99.90;;;;;;4250472;27;20082;-54
2023/09/21 02:34:21;;;;;;;6.05;2.20;;;19.20;99.90;;;;;;4250115;27;20140;-53
2023/09/21 02:36:23;;;;;;;8.90;2.92;;;19.20;99.90;;;;;;4249987;27;20049;-54
2023/09/21 02:38:26;;;;;;;5.13;2.65;;;19.20;99.90;;;;;;4250154;27;20080;-54
2023/09/21 02:40:28;;;;;;;8.32;2.22;;;19.20;99.90;;;;;;4250037;27;20047;-54
2023/09/21 02:42:30;;;;;;;3.78;1.92;;;19.10;99.90;;;;;;4250178;27;20403;-54
2023/09/21 02:44:32;;;;;;;10.13;2.13;;;19.20;99.90;;;;;;4250339;27;20071;-53
2023/09/21 02:46:37;;;;;;;4.30;1.80;;;19.10;99.90;;;;;;4249885;27;20122;-54
2023/09/21 02:48:40;;;;;;;3.38;1.90;;;19.20;99.90;;;;;;4249673;27;20100;-54
2023/09/21 02:50:46;;;;;;;4.82;1.95;;;19.10;99.90;;;;;;4249866;27;20493;-53
2023/09/21 02:52:52;;;;;;;5.45;2.05;;;19.10;99.90;;;;;;4249843;27;20500;-54
2023/09/21 02:54:54;;;;;;;6.55;1.92;;;19.10;99.90;;;;;;4250040;27;20051;-53
2023/09/21 02:56:56;;;;;;;4.47;1.95;;;19.10;99.90;;;;;;4249969;27;20129;-54
2023/09/21 02:58:58;;;;;;;3.40;1.83;;;19.10;99.90;;;;;;4249801;27;20078;-54
2023/09/21 03:01:00;;;;;;;5.20;2.15;;;19.10;99.90;;;;;;4249945;27;20040;-54
2023/09/21 03:03:07;;;;;;;4.25;2.00;;;19.10;99.90;;;;;;4248301;27;20076;-53
2023/09/21 03:05:10;;;;;;;4.72;1.95;;;19.20;99.90;;;;;;4249855;27;20400;-54
2023/09/21 03:07:13;;;;;;;4.40;1.80;;;19.10;99.90;;;;;;4249572;27;20130;-54
2023/09/21 03:09:15;;;;;;;4.57;2.42;;;19.20;99.90;;;;;;4249846;27;20043;-54
2023/09/21 03:11:18;;;;;;;4.38;2.20;;;19.10;99.90;;;;;;4249402;27;20072;-54
2023/09/21 03:13:21;;;;;;;4.25;1.92;;;19.20;99.90;;;;;;4249824;27;20039;-53
2023/09/21 03:15:24;;;;;;;2.80;1.88;;;19.10;99.90;;;;;;4249821;27;20047;-54
2023/09/21 03:17:28;;;;;;;6.05;2.20;;;19.10;99.90;;;;;;4246400;27;20055;-53
2023/09/21 03:19:32;;;;;;;6.28;2.17;;;19.20;99.90;;;;;;4249655;27;20039;-54
2023/09/21 03:21:34;;;;;;;3.83;1.75;;;19.10;99.90;;;;;;4249375;27;20071;-55
2023/09/21 03:23:37;;;;;;;3.63;1.77;;;19.20;99.90;;;;;;4249414;27;20039;-55
2023/09/21 03:25:41;;;;;;;5.07;1.90;;;19.20;99.90;;;;;;4249714;27;20070;-54
2023/09/21 03:27:45;;;;;;;5.63;1.88;;;19.20;99.90;;;;;;4249488;27;20469;-53
2023/09/21 03:29:49;;;;;;;3.07;1.73;;;19.20;99.90;;;;;;4231123;28;20134;-54
2023/09/21 03:31:55;;;;;;;4.35;2.00;;;19.20;99.90;;;;;;4248351;27;20455;-55
2023/09/21 03:34:02;;;;;;;3.00;1.58;;;19.20;99.90;;;;;;4238219;27;20101;-54
2023/09/21 03:36:13;;;;;;;4.30;1.65;;;19.20;99.90;;;;;;4249676;27;20047;-54
2023/09/21 03:38:18;;;;;;;4.25;1.83;;;19.20;99.90;;;;;;4249021;27;20043;-53
2023/09/21 03:40:22;;;;;;;3.20;1.70;;;19.20;99.90;;;;;;4249409;27;20468;-55
2023/09/21 03:42:24;;;;;;;3.53;1.80;;;19.10;99.90;;;;;;4249105;27;20043;-54
2023/09/21 03:44:28;;;;;;;3.75;1.73;;;19.10;99.90;;;;;;4249510;27;20473;-55
2023/09/21 03:46:31;;;;;;;3.83;1.70;;;19.10;99.90;;;;;;4249160;27;20047;-54
2023/09/21 03:48:35;;;;;;;5.32;1.70;;;19.10;99.90;;;;;;4249013;27;20073;-55
2023/09/21 03:50:39;;;;;;;5.70;1.40;;;19.10;99.90;;;;;;4249320;27;20047;-54
2023/09/21 03:52:43;;;;;;;4.10;1.83;;;19.20;99.90;;;;;;4248950;27;20069;-54
2023/09/21 03:54:48;;;;;;;2.33;1.30;;;19.10;99.90;;;;;;4248847;27;20053;-54
2023/09/21 03:56:50;;;;;;;;;;;19.20;99.90;;;;;;4249791;27;20043;-54
2023/09/21 03:58:55;;;;;;;5.07;1.55;;;19.10;99.90;;;;;;4230368;28;20013;-54
2023/09/21 04:01:04;;;;;;;3.15;1.45;;;19.10;99.90;;;;;;4230505;28;20138;-53
2023/09/21 04:03:10;;;;;;;3.90;1.40;;;19.20;99.90;;;;;;4248976;27;20087;-54
2023/09/21 04:05:18;;;;;;;3.08;1.30;;;19.20;99.90;;;;;;4248970;27;20039;-54
2023/09/21 04:07:21;;;;;;;4.43;1.67;;;19.20;99.90;;;;;;4248971;27;20054;-53
2023/09/21 04:09:24;;;;;;;3.83;1.40;;;19.10;99.90;;;;;;4248490;27;20078;-54
2023/09/21 04:11:28;;;;;;;3.78;1.50;;;19.10;99.90;;;;;;4249044;27;20131;-53
2023/09/21 04:13:31;;;;;;;5.68;1.45;;;19.20;99.90;;;;;;4248703;27;20050;-54
2023/09/21 04:15:33;;;;;;;4.45;1.33;;;19.20;99.90;;;;;;4248271;27;20069;-54
2023/09/21 04:17:35;;;;;;;2.88;1.50;;;19.20;99.90;;;;;;4235915;27;20048;-54
2023/09/21 04:19:39;;;;;;;6.63;1.75;;;19.20;99.90;;;;;;4247063;27;20047;-54
2023/09/21 04:21:41;;;;;;;5.60;1.58;;;19.20;99.90;;;;;;4248679;27;20047;-54
2023/09/21 04:23:43;;;;;;;3.13;1.45;;;19.20;99.90;;;;;;4248478;27;20480;-56
2023/09/21 04:25:47;;;;;;;6.90;1.65;;;19.20;99.90;;;;;;4248567;27;20050;-54
2023/09/21 04:27:51;;;;;;;2.72;1.40;;;19.20;99.90;;;;;;4249001;27;20481;-54
2023/09/21 04:29:53;;;;;;;2.55;1.33;;;19.10;99.90;;;;;;4248053;27;20160;-54
2023/09/21 04:31:55;;;;;;;3.85;1.60;;;19.20;99.90;;;;;;4248442;27;20077;-56
2023/09/21 04:33:57;;;;;;;2.65;1.35;;;19.20;99.90;;;;;;4248528;27;20098;-53
2023/09/21 04:35:59;;;;;;;5.07;1.80;;;19.20;99.90;;;;;;4237747;27;20064;-59
2023/09/21 04:38:03;;;;;;;3.13;1.60;;;19.20;99.90;;;;;;4249347;27;20058;-58
2023/09/21 04:40:10;;;;;;;3.20;1.85;;;19.20;99.90;;;;;;4249022;27;20100;-54
2023/09/21 04:42:14;;;;;;;3.95;1.73;;;19.20;99.90;;;;;;4249026;27;20125;-53
2023/09/21 04:44:16;;;;;;;7.40;2.00;;;19.30;99.90;;;;;;4247542;27;20043;-54
2023/09/21 04:46:19;;;;;;;4.55;1.83;;;19.20;99.90;;;;;;4248838;27;20101;-54
2023/09/21 04:48:22;;;;;;;4.20;1.83;;;19.10;99.90;;;;;;4231038;28;20048;-54
2023/09/21 04:50:24;;;;;;;5.50;1.90;;;19.10;99.90;;;;;;4248446;27;20047;-53
2023/09/21 04:52:26;;;;;;;6.78;1.85;;;19.10;99.90;;;;;;4248992;27;20110;-52
2023/09/21 04:54:29;;;;;;;4.82;2.17;;;19.10;99.90;;;;;;4248875;27;20067;-53
2023/09/21 04:56:31;;;;;;;4.72;2.00;;;19.10;99.90;;;;;;4249059;27;20525;-57
2023/09/21 04:58:34;;;;;;;4.40;1.88;;;19.10;99.90;;;;;;4248217;27;20472;-52
2023/09/21 05:00:36;;;;;;;4.90;1.88;;;19.10;99.90;;;;;;4248001;27;20039;-52
2023/09/21 05:02:38;;;;;;;5.53;2.03;;;19.00;99.90;;;;;;4247671;27;20039;-51
2023/09/21 05:04:41;;;;;;;2.63;1.60;;;19.00;99.90;;;;;;4248099;27;20092;-52
2023/09/21 05:06:43;;;;;;;4.40;1.80;;;19.00;99.90;;;;;;4247688;27;20035;-51
2023/09/21 05:08:45;;;;;;;4.13;1.80;;;19.00;99.90;;;;;;4247754;27;20122;-50
2023/09/21 05:10:49;;;;;;;3.78;1.85;;;19.00;99.90;;;;;;4247581;27;20134;-51
2023/09/21 05:12:51;;;;;;;4.47;2.03;;;19.00;99.90;;;;;;4247296;27;20055;-51
2023/09/21 05:14:55;;;;;;;6.70;2.10;;;19.00;99.90;;;;;;4247492;27;20039;-51
2023/09/21 05:16:58;;;;;;;6.50;2.20;;;19.00;99.90;;;;;;4247724;27;20047;-51
2023/09/21 05:19:01;;;;;;;4.90;1.88;;;19.00;99.90;;;;;;4247466;27;20043;-52
2023/09/21 05:21:04;;;;;;;5.05;1.98;;;19.00;99.90;;;;;;4247646;27;20047;-51
2023/09/21 05:23:07;;;;;;;6.53;2.30;;;18.90;99.90;;;;;;4247606;27;20078;-51
2023/09/21 05:25:10;;;;;;;6.55;2.15;;;19.00;99.90;;;;;;4247394;27;20471;-51
2023/09/21 05:27:12;;;;;;;8.02;2.35;;;18.90;99.90;;;;;;4247211;27;20382;-52
2023/09/21 05:29:14;;;;;;;5.40;2.50;;;19.00;99.90;;;;;;4247435;27;20051;-51
2023/09/21 05:31:17;;;;;;;7.15;2.33;;;19.00;99.90;;;;;;4247230;27;20037;-51
2023/09/21 05:33:19;;;;;;;7.38;2.40;;;19.00;99.90;;;;;;4247727;27;20401;-51
2023/09/21 05:35:23;;;;;;;6.78;2.47;;;18.90;99.90;;;;;;4247520;27;20050;-51
2023/09/21 05:37:25;;;;;;;6.68;2.60;;;18.90;99.90;;;;;;4247046;27;20136;-51
2023/09/21 05:39:28;;;;;;;5.45;2.65;;;18.90;99.90;;;;;;4247565;27;20058;-51
2023/09/21 05:41:31;;;;;;;5.28;2.30;;;19.00;99.90;;;;;;4246717;27;20043;-53
2023/09/21 05:43:34;;;;;;;5.55;2.33;;;19.00;99.90;;;;;;4247317;27;20404;-52
2023/09/21 05:45:37;;;;;;;6.88;2.17;;;19.00;99.90;;;;;;4247429;27;20043;-51
2023/09/21 05:47:41;;;;;;;5.85;2.55;;;18.90;99.90;;;;;;4247355;27;20039;-51
2023/09/21 05:49:44;;;;;;;10.90;2.65;;;18.90;99.90;;;;;;4230018;28;20052;-51
2023/09/21 05:51:47;;;;;;;5.47;2.58;;;18.90;99.90;;;;;;4237612;27;20043;-51
2023/09/21 05:53:49;;;;;;;5.18;2.70;;;18.80;99.90;;;;;;4247357;27;20105;-52
2023/09/21 05:55:51;;;;;;;8.88;2.78;;;18.90;99.90;;;;;;4246736;27;20051;-51
2023/09/21 05:57:53;;;;;;;7.05;2.65;;;18.90;99.90;;;;;;4246781;27;20403;-52
2023/09/21 05:59:55;;;;;;;6.82;2.58;;;18.80;99.90;;;;;;4247207;28;20047;-51
2023/09/21 06:01:58;;;;;;;7.78;2.70;;;18.80;99.90;;;;;;4247112;28;20088;-51
2023/09/21 06:04:02;;;;;;;6.47;2.78;;;18.80;99.90;;;;;;4247185;28;20481;-51
2023/09/21 06:06:07;;;;;;;;;;;18.80;99.90;;;;;;4247939;28;20044;-51
2023/09/21 06:08:10;;;;;;;6.93;2.47;;;18.80;99.90;;;;;;4246742;28;19968;-51
2023/09/21 06:10:12;;;;;;;5.97;2.33;;;18.80;99.90;;;;;;4247261;28;20047;-51
2023/09/21 06:12:14;;;;;;;6.80;2.13;;;18.80;99.90;;;;;;4246630;28;20035;-51
2023/09/21 06:14:18;;;;;;;4.32;2.28;;;18.70;99.90;;;;;;4235737;28;20091;-51
2023/09/21 06:16:21;;;;;;;8.10;2.70;;;18.80;99.90;;;;;;4244587;28;20043;-51
2023/09/21 06:18:24;;;;;;;4.82;2.30;;;18.80;99.90;;;;;;4243615;28;20065;-52
2023/09/21 06:20:29;;;;;;;6.10;2.70;;;18.80;99.90;;;;;;4246922;28;20093;-55
2023/09/21 06:22:31;;;;;;;4.88;2.17;;;18.80;99.90;;;;;;4247143;28;20043;-54
2023/09/21 06:24:34;;;;;;;5.20;2.85;;;18.80;99.90;;;;;;4247038;28;20050;-53
2023/09/21 06:26:36;;;;;;;4.18;2.15;;;18.80;99.90;;;;;;4246737;28;20108;-54
2023/09/21 06:28:39;;;;;;;6.03;2.63;;;18.80;99.90;;;;;;4246303;28;20130;-54
2023/09/21 06:30:41;;;;;;;4.75;2.13;;;18.90;99.90;;;;;;4246670;28;20059;-54
2023/09/21 06:32:44;;;;;;;7.85;2.72;;;18.90;99.90;;;;;;4245849;28;20046;-54
2023/09/21 06:34:51;;;;;;;9.13;2.53;;;18.90;99.90;;;;;;4246891;28;20043;-54
2023/09/21 06:36:56;;;;;;;6.38;2.88;;;18.80;99.90;;;;;;4246984;28;20051;-54
2023/09/21 06:38:58;;;;;;;6.53;2.13;;;18.90;99.90;;;;;;4221676;27;20068;-54
2023/09/21 06:41:01;;;;;;;6.00;2.00;;;18.80;99.90;;;;;;4244749;28;20275;-53
2023/09/21 06:43:05;;;;;;;6.05;2.03;;;18.90;99.90;;;;;;4246418;28;20073;-53
2023/09/21 06:45:09;;;;;;;4.07;2.13;;;18.90;99.90;;;;;;4246313;28;20050;-54
2023/09/21 06:47:12;;;;;;;8.63;2.50;;;18.80;99.90;;;;;;4245645;28;20055;-54
2023/09/21 06:49:15;;;;;;;5.55;2.63;;;18.80;99.90;;;;;;4246290;27;20044;-53
2023/09/21 06:51:17;;;;;;;7.78;2.65;;;18.80;99.90;;;;;;4246795;28;20047;-54
2023/09/21 06:53:23;;;;;;;5.75;2.50;;;18.80;99.90;;;;;;4246639;28;20122;-54
2023/09/21 06:55:25;;;;;;;5.88;2.38;;;18.80;99.90;;;;;;4246394;28;20454;-53
2023/09/21 06:57:28;;;;;;;6.40;2.80;;;18.80;99.90;;;;;;4246881;28;20429;-54
2023/09/21 06:59:34;;;;;;;5.93;2.20;;;18.80;99.90;;;;;;4246256;28;20043;-54
2023/09/21 07:01:37;;;;;;;5.80;2.10;;;18.80;99.90;;;;;;4246470;28;20099;-54
2023/09/21 07:03:40;;;;;;;6.63;1.98;;;18.80;99.90;;;;;;4246625;28;20138;-53
2023/09/21 07:05:43;;;;;;;7.55;2.28;;;18.70;99.90;;;;;;4228392;28;20044;-55
2023/09/21 07:07:46;;;;;;;9.13;2.67;;;18.70;99.90;;;;;;4249094;27;20043;-54
2023/09/21 07:09:49;;;;;;;7.13;2.90;;;18.70;99.90;;;;;;4249085;27;20086;-54
2023/09/21 07:11:53;;;;;;;11.00;3.00;;;18.70;99.90;;;;;;4249694;27;20043;-54
2023/09/21 07:13:56;;;;;;;6.68;2.42;;;18.70;99.90;;;;;;4249426;27;20043;-54
2023/09/21 07:15:58;;;;;;;6.15;2.70;;;18.60;99.90;;;;;;4249731;27;20070;-54
2023/09/21 07:18:00;;;;;;;7.05;2.58;;;18.70;99.90;;;;;;4232955;27;20047;-54
2023/09/21 07:20:05;;;;;;;7.40;2.65;;;18.70;99.90;;;;;;4243198;27;20039;-54
2023/09/21 07:22:07;;;;;;;9.77;3.45;;;18.70;99.90;;;;;;4231338;28;20051;-54
2023/09/21 07:24:09;;;;;;;7.53;2.65;;;18.70;99.90;;;;;;4230888;28;20211;-54
2023/09/21 07:26:12;;;;;;;11.35;3.72;;;18.60;99.90;;;;;;4249444;27;20093;-54
2023/09/21 07:28:14;;;;;;;7.63;3.00;;;18.60;99.90;;;;;;4249458;27;20118;-53
2023/09/21 07:30:17;;;;;;;9.25;3.30;;;18.60;99.90;;;;;;4249381;27;20088;-54
2023/09/21 07:32:20;;;;;;;8.50;2.88;;;18.60;99.90;;;;;;4249580;27;20178;-54
2023/09/21 07:34:23;;;;;;;9.13;3.25;;;18.60;99.90;;;;;;4249442;27;20039;-54
2023/09/21 07:36:25;;;;;;;8.95;2.80;;;18.60;99.90;;;;;;4248132;27;20051;-54
2023/09/21 07:38:27;;;;;;;14.93;3.38;;;18.60;99.90;;;;;;4248862;27;20055;-53
2023/09/21 07:40:30;;;;;;;8.30;2.90;;;18.50;99.90;;;;;;4248960;27;20043;-53
2023/09/21 07:42:36;;;;;;;8.30;2.30;;;18.50;99.90;;;;;;4249094;27;20043;-54
2023/09/21 07:44:38;;;;;;;4.85;2.60;;;18.50;99.90;;;;;;4249362;27;20051;-54
2023/09/21 07:46:40;;;;;;;14.30;3.33;;;18.50;99.90;;;;;;4249285;27;20047;-54
2023/09/21 07:48:43;;;;;;;5.95;2.50;;;18.50;99.90;;;;;;4232309;28;20473;-54
2023/09/21 07:50:46;;;;;;;5.53;2.97;;;18.50;99.90;;;;;;4239788;27;20051;-61
2023/09/21 07:52:48;;;;;;;11.57;2.65;;;18.50;99.90;;;;;;4249248;27;20051;-54
2023/09/21 07:54:50;;;;;;;9.93;3.28;;;18.50;99.90;;;;;;4249277;27;20043;-54
2023/09/21 07:56:52;;;;;;;7.78;2.70;;;18.50;99.90;;;;;;4248684;27;20134;-53
2023/09/21 07:58:56;;;;;;;4.75;2.60;;;18.40;99.90;;;;;;4249125;27;20043;-54
2023/09/21 08:00:58;;;;;;;7.28;2.55;;;18.50;99.90;;;;;;4248837;27;20062;-54
2023/09/21 08:03:00;;;;;;;6.80;3.03;;;18.50;99.90;;;;;;4249128;27;20486;-55
2023/09/21 08:05:04;;;;;;;5.28;2.70;;;18.40;99.90;;;;;;4248999;27;20104;-54
2023/09/21 08:07:07;;;;;;;4.88;2.78;;;18.40;99.90;;;;;;4248302;27;20130;-53
2023/09/21 08:09:09;;;;;;;10.05;2.72;;;18.50;99.90;;;;;;4248867;27;20118;-54
2023/09/21 08:11:31;;;;;;;6.07;2.63;;;18.50;99.90;;;;;;4249024;27;20039;-54
2023/09/21 08:13:34;;;;;;;6.88;2.65;;;18.50;99.90;;;;;;4248954;27;20066;-55
2023/09/21 08:15:37;;;;;;;5.72;2.88;;;18.40;99.90;;;;;;4249034;27;20107;-54
2023/09/21 08:17:40;;;;;;;5.25;2.58;;;18.50;99.90;;;;;;4248174;27;20051;-52
2023/09/21 08:19:42;;;;;;;5.25;2.70;;;18.50;99.90;;;;;;4248776;27;20043;-53
2023/09/21 08:21:44;;;;;;;8.73;2.38;;;18.50;99.90;;;;;;4248206;27;20044;-53
2023/09/21 08:23:47;;;;;;;4.88;2.25;;;18.50;99.90;;;;;;4248401;27;20074;-54
2023/09/21 08:25:49;;;;;;;8.55;3.08;;;18.40;99.90;;;;;;4248421;27;20103;-54
2023/09/21 08:27:51;;;;;;;6.20;2.40;;;18.40;99.90;;;;;;4248473;27;20184;-53
2023/09/21 08:29:53;;;;;;;7.88;2.70;;;18.30;99.90;;;;;;4248527;27;20047;-53
2023/09/21 08:31:57;;;;;;;6.13;2.60;;;18.30;99.90;;;;;;4248305;27;20045;-53
2023/09/21 08:34:00;;;;;;;3.97;2.40;;;18.30;99.90;;;;;;4248663;27;20073;-54
2023/09/21 08:36:03;;;;;;;5.53;2.60;;;18.30;99.90;;;;;;4248082;27;20134;-55
2023/09/21 08:38:05;;;;;;;4.20;2.72;;;18.30;99.90;;;;;;4248124;27;20482;-54
2023/09/21 08:40:08;;;;;;;5.10;2.85;;;18.30;99.90;;;;;;4248453;27;20112;-54
2023/09/21 08:42:10;;;;;;;6.00;2.65;;;18.30;99.90;;;;;;4248262;27;20043;-54
2023/09/21 08:44:13;;;;;;;6.38;2.63;;;18.30;99.90;;;;;;4248189;27;20067;-54
2023/09/21 08:46:16;;;;;;;7.57;2.70;;;18.40;99.90;;;;;;4248267;27;20130;-54
2023/09/21 08:48:22;;;;;;;9.98;3.30;;;18.40;99.90;;;;;;4248111;27;20064;-53
2023/09/21 08:50:27;;;;;;;3.67;2.60;;;18.30;99.90;;;;;;4247445;27;20166;-53
2023/09/21 08:52:32;;;;;;;12.63;3.45;;;18.30;99.90;;;;;;4247881;27;20106;-53
2023/09/21 08:54:36;;;;;;;;;;;18.30;99.90;;;;;;4230479;28;20078;-53
2023/09/21 08:56:39;;;;;;;6.70;2.80;;;18.30;99.90;;;;;;4231136;28;19970;-54
2023/09/21 08:58:43;;;;;;;8.50;2.80;;;18.20;99.90;;;;;;4244667;27;20047;-54
2023/09/21 09:00:47;;;;;;;8.68;2.80;;;18.20;99.90;;;;;;4247905;27;20484;-54
2023/09/21 09:02:50;;;;;;;8.43;2.60;;;18.20;99.90;;;;;;4247836;27;20066;-53
2023/09/21 09:04:55;;;;;;;6.70;3.15;;;18.30;99.90;;;;;;4247209;27;20142;-54
2023/09/21 09:06:57;;;;;;;6.40;2.55;;;18.30;99.90;;;;;;4247923;27;20054;-55
2023/09/21 09:08:59;;;;;;;5.60;2.58;;;18.20;99.90;;;;;;4247880;27;20055;-54
2023/09/21 09:11:02;;;;;;;5.18;2.38;;;18.30;99.90;;;;;;4229626;28;20378;-53
2023/09/21 09:13:06;;;;;;;5.05;2.40;;;18.30;99.90;;;;;;4234952;27;20046;-52
2023/09/21 09:15:09;;;;;;;4.93;2.80;;;18.20;99.90;;;;;;4247654;27;20039;-53
2023/09/21 09:17:14;;;;;;;6.25;2.45;;;18.20;99.90;;;;;;4247863;27;20078;-54
2023/09/21 09:19:16;;;;;;;9.35;2.83;;;18.20;99.90;;;;;;4246986;27;20039;-54
2023/09/21 09:21:20;;;;;;;11.50;2.70;;;18.20;99.90;;;;;;4247777;27;20043;-54
2023/09/21 09:23:22;;;;;;;4.95;2.50;;;18.30;99.90;;;;;;4247368;27;20039;-54
2023/09/21 09:25:25;;;;;;;6.70;2.60;;;18.40;99.90;;;;;;4247368;27;20118;-53
2023/09/21 09:27:27;;;;;;;6.80;2.58;;;18.30;99.90;;;;;;4247822;27;20067;-54
2023/09/21 09:29:29;;;;;;;4.32;2.35;;;18.30;99.90;;;;;;4246702;27;20064;-53
2023/09/21 09:31:32;;;;;;;5.90;2.70;;;18.40;99.90;;;;;;4247393;27;20046;-53
2023/09/21 09:33:34;;;;;;;8.15;3.13;;;18.30;99.90;;;;;;4247187;27;20043;-55
2023/09/21 09:35:38;;;;;;;7.00;3.08;;;18.30;99.90;;;;;;4248309;27;20107;-54
2023/09/21 09:37:43;;;;;;;6.43;3.30;;;18.30;99.90;;;;;;4248172;27;20043;-53
2023/09/21 09:39:47;;;;;;;9.05;3.00;;;18.30;99.90;;;;;;4247088;27;20046;-53
2023/09/21 09:41:50;;;;;;;7.45;2.90;;;18.30;99.90;;;;;;4247467;27;20149;-61
2023/09/21 09:43:56;;;;;;;8.88;3.08;;;18.30;99.90;;;;;;4247262;27;20051;-54
2023/09/21 09:46:03;;;;;;;11.40;3.03;;;18.40;99.90;;;;;;4248528;27;20381;-59
2023/09/21 09:48:11;;;;;;;8.20;3.03;;;18.30;99.90;;;;;;4247905;27;20043;-57
2023/09/21 09:50:17;;;;;;;7.13;3.10;;;18.40;99.90;;;;;;4248275;27;20054;-58
2023/09/21 09:52:20;;;;;;;3.70;1.42;;;18.30;99.90;;;;;;4248090;27;20043;-53
2023/09/21 09:54:26;;;;;;;3.55;1.30;;;18.00;99.90;;;;;;4247124;27;20073;-53
2023/09/21 09:56:29;;;;;;;5.30;1.60;;;17.90;99.90;;;;;;4247037;27;20053;-54
2023/09/21 09:58:32;;;;;;;4.55;1.40;;;17.70;99.90;;;;;;4247493;27;20066;-54
2023/09/21 10:00:42;;;;;;;2.67;1.20;;;17.50;99.90;;;;;;4247220;27;20039;-54
2023/09/21 10:02:47;;;;;;;4.35;1.75;;;17.40;99.90;;;;;;4246796;28;20043;-53
2023/09/21 10:04:51;;;;;;;2.70;1.20;;;17.40;99.90;;;;;;4247248;28;20043;-53
2023/09/21 10:06:53;;;;;;;1.90;0.70;;;17.30;99.90;;;;;;4247056;28;20847;-54
2023/09/21 10:08:56;;;;;;;2.53;0.90;;;17.30;99.90;;;;;;4247464;28;20047;-53
2023/09/21 10:11:01;;;;;;;2.65;1.10;;;17.30;99.90;;;;;;4247011;28;20162;-54
2023/09/21 10:13:05;;;;;;;3.38;1.10;;;17.30;99.90;;;;;;4246986;28;20435;-54
2023/09/21 10:15:13;;;;;;;3.33;1.33;;;17.40;99.90;;;;;;4246990;28;20031;-54
2023/09/21 10:17:23;;;;;;;2.20;1.55;;;17.40;99.90;;;;;;4246769;28;20043;-53
2023/09/21 10:19:28;;;;;;;3.10;1.15;;;17.50;99.90;;;;;;4247146;28;20107;-54
2023/09/21 10:21:31;;;;;;;3.28;1.27;;;17.40;99.90;;;;;;4247316;28;20110;-54
2023/09/21 10:23:35;;;;;;;5.68;1.55;;;17.40;99.90;;;;;;4247396;28;20430;-53
2023/09/21 10:25:39;;;;;;;1.85;1.05;;;17.50;99.90;;;;;;4247004;28;20108;-53
2023/09/21 10:27:46;;;;;;;3.35;1.38;;;17.50;99.90;;;;;;4235771;28;20050;-54
2023/09/21 10:29:55;;;;;;;2.10;1.10;;;17.50;99.90;;;;;;4247394;28;20047;-54
2023/09/21 10:32:01;;;;;;;3.70;1.40;;;17.60;99.90;;;;;;4246655;28;20050;-53
2023/09/21 10:34:12;;;;;;;2.70;1.30;;;17.60;99.90;;;;;;4247167;28;20051;-53
2023/09/21 10:36:19;;;;;;;2.70;1.20;;;17.60;99.90;;;;;;4246896;28;20043;-54
2023/09/21 10:38:21;;;;;;;4.30;1.38;;;17.60;99.90;;;;;;4247023;28;20504;-53
2023/09/21 10:40:26;;;;;;;2.40;1.05;;;17.60;99.90;;;;;;4247247;27;20039;-53
2023/09/21 10:42:33;;;;;;;3.08;1.15;;;17.70;99.90;;;;;;4250019;27;20047;-53